sensor_id;sensor_type;location;lat;lon;timestamp;P1;durP1;ratioP1;P2;durP2;ratioP2
68225;SDS011;55045;49.410;11.030;2023-08-17T00:01:44;14.25;;;7.90;;
68225;SDS011;55045;49.410;11.030;2023-08-17T00:04:47;9.93;;;8.68;;
68225;SDS011;55045;49.410;11.030;2023-08-17T00:07:52;11.02;;;8.65;;
68225;SDS011;55045;49.410;11.030;2023-08-17T00:10:55;12.10;;;9.02;;
68225;SDS011;55045;49.410;11.030;2023-08-17T00:13:59;13.85;;;9.13;;
68225;SDS011;55045;49.410;11.030;2023-08-17T00:17:02;11.55;;;9.40;;
68225;SDS011;55045;49.410;11.030;2023-08-17T00:20:06;11.73;;;8.98;;
68225;SDS011;55045;49.410;11.030;2023-08-17T00:23:12;13.35;;;9.50;;
68225;SDS011;55045;49.410;11.030;2023-08-17T00:26:16;10.05;;;8.98;;
68225;SDS011;55045;49.410;11.030;2023-08-17T00:29:19;10.48;;;9.18;;
68225;SDS011;55045;49.410;11.030;2023-08-17T00:32:22;11.60;;;8.90;;
68225;SDS011;55045;49.410;11.030;2023-08-17T00:35:25;11.68;;;8.90;;
68225;SDS011;55045;49.410;11.030;2023-08-17T00:38:32;10.00;;;8.73;;
68225;SDS011;55045;49.410;11.030;2023-08-17T00:41:35;10.18;;;8.70;;
68225;SDS011;55045;49.410;11.030;2023-08-17T00:44:39;13.45;;;8.50;;
68225;SDS011;55045;49.410;11.030;2023-08-17T00:47:43;16.75;;;8.80;;
68225;SDS011;55045;49.410;11.030;2023-08-17T00:50:46;11.68;;;8.80;;
68225;SDS011;55045;49.410;11.030;2023-08-17T00:53:52;10.10;;;8.93;;
68225;SDS011;55045;49.410;11.030;2023-08-17T01:00:02;15.00;;;9.35;;
68225;SDS011;55045;49.410;11.030;2023-08-17T01:03:07;11.52;;;9.23;;
68225;SDS011;55045;49.410;11.030;2023-08-17T01:06:12;13.02;;;9.30;;
68225;SDS011;55045;49.410;11.030;2023-08-17T01:09:17;13.38;;;8.80;;
68225;SDS011;55045;49.410;11.030;2023-08-17T01:12:23;10.13;;;8.52;;
68225;SDS011;55045;49.410;11.030;2023-08-17T01:15:34;16.65;;;9.18;;
68225;SDS011;55045;49.410;11.030;2023-08-17T01:18:39;9.23;;;8.30;;
68225;SDS011;55045;49.410;11.030;2023-08-17T01:21:47;10.07;;;8.43;;
68225;SDS011;55045;49.410;11.030;2023-08-17T01:24:55;12.68;;;8.60;;
68225;SDS011;55045;49.410;11.030;2023-08-17T01:27:59;13.18;;;8.80;;
68225;SDS011;55045;49.410;11.030;2023-08-17T01:31:04;9.23;;;8.27;;
68225;SDS011;55045;49.410;11.030;2023-08-17T01:34:13;11.80;;;8.85;;
68225;SDS011;55045;49.410;11.030;2023-08-17T01:37:20;10.93;;;8.10;;
68225;SDS011;55045;49.410;11.030;2023-08-17T01:40:29;10.45;;;8.45;;
68225;SDS011;55045;49.410;11.030;2023-08-17T01:43:35;11.48;;;8.93;;
68225;SDS011;55045;49.410;11.030;2023-08-17T01:46:39;11.40;;;8.10;;
68225;SDS011;55045;49.410;11.030;2023-08-17T01:49:43;9.35;;;8.45;;
68225;SDS011;55045;49.410;11.030;2023-08-17T01:52:47;8.75;;;7.85;;
68225;SDS011;55045;49.410;11.030;2023-08-17T01:55:53;9.43;;;7.82;;
68225;SDS011;55045;49.410;11.030;2023-08-17T01:58:58;8.43;;;7.70;;
68225;SDS011;55045;49.410;11.030;2023-08-17T02:02:01;8.18;;;6.93;;
68225;SDS011;55045;49.410;11.030;2023-08-17T02:05:05;10.70;;;8.50;;
68225;SDS011;55045;49.410;11.030;2023-08-17T02:08:11;8.93;;;8.05;;
68225;SDS011;55045;49.410;11.030;2023-08-17T02:11:15;12.43;;;7.78;;
68225;SDS011;55045;49.410;11.030;2023-08-17T02:14:19;8.32;;;7.53;;
68225;SDS011;55045;49.410;11.030;2023-08-17T02:17:22;9.27;;;7.50;;
68225;SDS011;55045;49.410;11.030;2023-08-17T02:20:25;9.02;;;7.40;;
68225;SDS011;55045;49.410;11.030;2023-08-17T02:23:29;8.52;;;7.50;;
68225;SDS011;55045;49.410;11.030;2023-08-17T02:26:33;8.70;;;6.63;;
68225;SDS011;55045;49.410;11.030;2023-08-17T02:29:37;10.43;;;8.13;;
68225;SDS011;55045;49.410;11.030;2023-08-17T02:32:40;9.38;;;7.15;;
68225;SDS011;55045;49.410;11.030;2023-08-17T02:35:47;9.57;;;7.47;;
68225;SDS011;55045;49.410;11.030;2023-08-17T02:38:51;10.32;;;8.20;;
68225;SDS011;55045;49.410;11.030;2023-08-17T02:41:56;10.48;;;8.00;;
68225;SDS011;55045;49.410;11.030;2023-08-17T02:44:59;11.35;;;7.32;;
68225;SDS011;55045;49.410;11.030;2023-08-17T02:48:04;11.57;;;8.20;;
68225;SDS011;55045;49.410;11.030;2023-08-17T02:51:07;9.98;;;7.72;;
68225;SDS011;55045;49.410;11.030;2023-08-17T02:54:10;9.32;;;8.00;;
68225;SDS011;55045;49.410;11.030;2023-08-17T02:57:15;8.45;;;7.47;;
68225;SDS011;55045;49.410;11.030;2023-08-17T03:00:20;9.97;;;8.00;;
68225;SDS011;55045;49.410;11.030;2023-08-17T03:03:24;8.40;;;7.60;;
68225;SDS011;55045;49.410;11.030;2023-08-17T03:06:27;8.95;;;7.88;;
68225;SDS011;55045;49.410;11.030;2023-08-17T03:09:30;7.95;;;6.50;;
68225;SDS011;55045;49.410;11.030;2023-08-17T03:12:35;11.07;;;8.05;;
68225;SDS011;55045;49.410;11.030;2023-08-17T03:15:38;11.75;;;7.68;;
68225;SDS011;55045;49.410;11.030;2023-08-17T03:18:42;10.60;;;7.65;;
68225;SDS011;55045;49.410;11.030;2023-08-17T03:21:47;8.75;;;7.53;;
68225;SDS011;55045;49.410;11.030;2023-08-17T03:24:50;10.70;;;8.18;;
68225;SDS011;55045;49.410;11.030;2023-08-17T03:27:55;8.10;;;6.10;;
68225;SDS011;55045;49.410;11.030;2023-08-17T03:34:37;9.88;;;7.65;;
68225;SDS011;55045;49.410;11.030;2023-08-17T03:37:42;7.60;;;6.85;;
68225;SDS011;55045;49.410;11.030;2023-08-17T03:40:46;8.35;;;7.28;;
68225;SDS011;55045;49.410;11.030;2023-08-17T03:43:49;8.60;;;7.70;;
68225;SDS011;55045;49.410;11.030;2023-08-17T03:46:52;10.40;;;8.20;;
68225;SDS011;55045;49.410;11.030;2023-08-17T03:49:57;12.07;;;7.70;;
68225;SDS011;55045;49.410;11.030;2023-08-17T03:53:00;9.20;;;8.13;;
68225;SDS011;55045;49.410;11.030;2023-08-17T03:56:03;11.05;;;8.05;;
68225;SDS011;55045;49.410;11.030;2023-08-17T03:59:06;8.38;;;7.30;;
68225;SDS011;55045;49.410;11.030;2023-08-17T04:02:10;12.60;;;8.40;;
68225;SDS011;55045;49.410;11.030;2023-08-17T04:05:15;10.70;;;8.55;;
68225;SDS011;55045;49.410;11.030;2023-08-17T04:08:19;8.95;;;8.05;;
68225;SDS011;55045;49.410;11.030;2023-08-17T04:11:22;10.88;;;8.85;;
68225;SDS011;55045;49.410;11.030;2023-08-17T04:14:26;12.50;;;8.43;;
68225;SDS011;55045;49.410;11.030;2023-08-17T04:17:30;9.10;;;8.18;;
68225;SDS011;55045;49.410;11.030;2023-08-17T04:20:35;9.10;;;8.20;;
68225;SDS011;55045;49.410;11.030;2023-08-17T04:23:38;12.50;;;8.77;;
68225;SDS011;55045;49.410;11.030;2023-08-17T04:26:47;10.40;;;9.27;;
68225;SDS011;55045;49.410;11.030;2023-08-17T04:29:50;12.98;;;9.43;;
68225;SDS011;55045;49.410;11.030;2023-08-17T04:32:53;11.10;;;8.85;;
68225;SDS011;55045;49.410;11.030;2023-08-17T04:35:58;11.50;;;9.73;;
68225;SDS011;55045;49.410;11.030;2023-08-17T04:39:02;12.82;;;9.70;;
68225;SDS011;55045;49.410;11.030;2023-08-17T04:42:07;10.98;;;9.77;;
68225;SDS011;55045;49.410;11.030;2023-08-17T04:45:10;10.43;;;9.18;;
68225;SDS011;55045;49.410;11.030;2023-08-17T04:48:18;11.45;;;9.50;;
68225;SDS011;55045;49.410;11.030;2023-08-17T04:51:23;10.77;;;9.00;;
68225;SDS011;55045;49.410;11.030;2023-08-17T04:54:26;12.50;;;9.18;;
68225;SDS011;55045;49.410;11.030;2023-08-17T04:57:30;13.95;;;10.55;;
68225;SDS011;55045;49.410;11.030;2023-08-17T05:00:34;12.10;;;9.82;;
68225;SDS011;55045;49.410;11.030;2023-08-17T05:03:37;11.10;;;9.90;;
68225;SDS011;55045;49.410;11.030;2023-08-17T05:06:43;13.80;;;10.95;;
68225;SDS011;55045;49.410;11.030;2023-08-17T05:09:48;11.90;;;10.57;;
68225;SDS011;55045;49.410;11.030;2023-08-17T05:12:51;12.45;;;10.23;;
68225;SDS011;55045;49.410;11.030;2023-08-17T05:15:55;15.98;;;10.98;;
68225;SDS011;55045;49.410;11.030;2023-08-17T05:18:58;11.70;;;9.48;;
68225;SDS011;55045;49.410;11.030;2023-08-17T05:22:04;14.52;;;10.43;;
68225;SDS011;55045;49.410;11.030;2023-08-17T05:25:07;12.25;;;9.90;;
68225;SDS011;55045;49.410;11.030;2023-08-17T05:28:12;12.25;;;9.40;;
68225;SDS011;55045;49.410;11.030;2023-08-17T05:31:16;12.23;;;9.65;;
68225;SDS011;55045;49.410;11.030;2023-08-17T05:34:22;17.50;;;10.38;;
68225;SDS011;55045;49.410;11.030;2023-08-17T05:37:27;14.23;;;9.90;;
68225;SDS011;55045;49.410;11.030;2023-08-17T05:40:32;12.45;;;10.15;;
68225;SDS011;55045;49.410;11.030;2023-08-17T05:43:35;12.45;;;10.50;;
68225;SDS011;55045;49.410;11.030;2023-08-17T05:46:41;13.70;;;9.77;;
68225;SDS011;55045;49.410;11.030;2023-08-17T05:49:45;11.95;;;9.02;;
68225;SDS011;55045;49.410;11.030;2023-08-17T05:52:49;11.38;;;10.18;;
68225;SDS011;55045;49.410;11.030;2023-08-17T05:55:53;10.45;;;8.82;;
68225;SDS011;55045;49.410;11.030;2023-08-17T05:58:56;13.30;;;9.18;;
68225;SDS011;55045;49.410;11.030;2023-08-17T06:01:59;12.20;;;9.70;;
68225;SDS011;55045;49.410;11.030;2023-08-17T06:05:06;16.27;;;9.70;;
68225;SDS011;55045;49.410;11.030;2023-08-17T06:08:12;13.75;;;10.18;;
68225;SDS011;55045;49.410;11.030;2023-08-17T06:11:15;10.25;;;9.23;;
68225;SDS011;55045;49.410;11.030;2023-08-17T06:14:18;11.52;;;10.40;;
68225;SDS011;55045;49.410;11.030;2023-08-17T06:17:22;10.68;;;9.27;;
68225;SDS011;55045;49.410;11.030;2023-08-17T06:20:26;15.45;;;9.63;;
68225;SDS011;55045;49.410;11.030;2023-08-17T06:23:30;12.85;;;9.93;;
68225;SDS011;55045;49.410;11.030;2023-08-17T06:26:33;14.65;;;9.85;;
68225;SDS011;55045;49.410;11.030;2023-08-17T06:29:36;9.75;;;8.80;;
68225;SDS011;55045;49.410;11.030;2023-08-17T06:32:40;11.93;;;10.27;;
68225;SDS011;55045;49.410;11.030;2023-08-17T06:35:43;12.07;;;9.43;;
68225;SDS011;55045;49.410;11.030;2023-08-17T06:38:48;12.85;;;9.02;;
68225;SDS011;55045;49.410;11.030;2023-08-17T06:41:51;11.77;;;9.52;;
68225;SDS011;55045;49.410;11.030;2023-08-17T06:44:54;11.00;;;8.85;;
68225;SDS011;55045;49.410;11.030;2023-08-17T06:47:57;12.80;;;9.52;;
68225;SDS011;55045;49.410;11.030;2023-08-17T06:51:00;9.02;;;8.13;;
68225;SDS011;55045;49.410;11.030;2023-08-17T06:54:08;9.95;;;9.05;;
68225;SDS011;55045;49.410;11.030;2023-08-17T06:57:11;11.50;;;8.70;;
68225;SDS011;55045;49.410;11.030;2023-08-17T07:00:15;9.63;;;8.45;;
68225;SDS011;55045;49.410;11.030;2023-08-17T07:03:20;10.10;;;9.07;;
68225;SDS011;55045;49.410;11.030;2023-08-17T07:06:23;11.85;;;9.70;;
68225;SDS011;55045;49.410;11.030;2023-08-17T07:09:28;10.98;;;8.20;;
68225;SDS011;55045;49.410;11.030;2023-08-17T07:12:31;13.18;;;8.07;;
68225;SDS011;55045;49.410;11.030;2023-08-17T07:15:34;9.05;;;8.18;;
68225;SDS011;55045;49.410;11.030;2023-08-17T07:18:38;11.63;;;7.97;;
68225;SDS011;55045;49.410;11.030;2023-08-17T07:21:41;11.48;;;8.40;;
68225;SDS011;55045;49.410;11.030;2023-08-17T07:24:46;10.07;;;8.70;;
68225;SDS011;55045;49.410;11.030;2023-08-17T07:27:49;12.30;;;9.23;;
68225;SDS011;55045;49.410;11.030;2023-08-17T07:30:52;9.85;;;8.82;;
68225;SDS011;55045;49.410;11.030;2023-08-17T07:33:56;11.23;;;9.02;;
68225;SDS011;55045;49.410;11.030;2023-08-17T07:36:59;10.07;;;8.82;;
68225;SDS011;55045;49.410;11.030;2023-08-17T07:40:04;8.70;;;7.70;;
68225;SDS011;55045;49.410;11.030;2023-08-17T07:43:09;11.10;;;9.57;;
68225;SDS011;55045;49.410;11.030;2023-08-17T07:46:12;10.68;;;9.68;;
68225;SDS011;55045;49.410;11.030;2023-08-17T07:49:16;10.68;;;9.25;;
68225;SDS011;55045;49.410;11.030;2023-08-17T07:52:34;13.68;;;9.02;;
68225;SDS011;55045;49.410;11.030;2023-08-17T07:55:38;10.85;;;8.23;;
68225;SDS011;55045;49.410;11.030;2023-08-17T07:58:42;13.50;;;9.45;;
68225;SDS011;55045;49.410;11.030;2023-08-17T08:01:45;10.38;;;9.35;;
68225;SDS011;55045;49.410;11.030;2023-08-17T08:04:48;9.70;;;8.77;;
68225;SDS011;55045;49.410;11.030;2023-08-17T08:07:52;9.77;;;8.43;;
68225;SDS011;55045;49.410;11.030;2023-08-17T08:10:58;10.57;;;8.52;;
68225;SDS011;55045;49.410;11.030;2023-08-17T08:14:01;10.45;;;9.15;;
68225;SDS011;55045;49.410;11.030;2023-08-17T08:17:04;10.13;;;9.13;;
68225;SDS011;55045;49.410;11.030;2023-08-17T08:20:08;9.38;;;8.43;;
68225;SDS011;55045;49.410;11.030;2023-08-17T08:23:12;9.15;;;8.02;;
68225;SDS011;55045;49.410;11.030;2023-08-17T08:26:16;9.65;;;8.38;;
68225;SDS011;55045;49.410;11.030;2023-08-17T08:29:20;10.35;;;8.45;;
68225;SDS011;55045;49.410;11.030;2023-08-17T08:32:23;9.10;;;7.78;;
68225;SDS011;55045;49.410;11.030;2023-08-17T08:35:29;8.70;;;7.90;;
68225;SDS011;55045;49.410;11.030;2023-08-17T08:38:32;9.95;;;7.18;;
68225;SDS011;55045;49.410;11.030;2023-08-17T08:41:37;9.40;;;7.70;;
68225;SDS011;55045;49.410;11.030;2023-08-17T08:44:40;8.20;;;7.40;;
68225;SDS011;55045;49.410;11.030;2023-08-17T08:47:44;9.23;;;8.05;;
68225;SDS011;55045;49.410;11.030;2023-08-17T08:50:48;8.85;;;7.80;;
68225;SDS011;55045;49.410;11.030;2023-08-17T08:54:00;8.05;;;7.35;;
68225;SDS011;55045;49.410;11.030;2023-08-17T08:57:08;9.18;;;7.70;;
68225;SDS011;55045;49.410;11.030;2023-08-17T09:00:16;9.05;;;8.18;;
68225;SDS011;55045;49.410;11.030;2023-08-17T09:03:23;10.35;;;8.50;;
68225;SDS011;55045;49.410;11.030;2023-08-17T09:06:28;9.57;;;8.68;;
68225;SDS011;55045;49.410;11.030;2023-08-17T09:09:35;11.60;;;8.48;;
68225;SDS011;55045;49.410;11.030;2023-08-17T09:12:41;9.45;;;8.32;;
68225;SDS011;55045;49.410;11.030;2023-08-17T09:15:49;12.98;;;8.48;;
68225;SDS011;55045;49.410;11.030;2023-08-17T09:18:53;9.13;;;8.23;;
68225;SDS011;55045;49.410;11.030;2023-08-17T09:21:56;8.30;;;7.60;;
68225;SDS011;55045;49.410;11.030;2023-08-17T09:24:59;8.13;;;7.32;;
68225;SDS011;55045;49.410;11.030;2023-08-17T09:28:07;9.75;;;7.65;;
68225;SDS011;55045;49.410;11.030;2023-08-17T09:34:36;9.23;;;8.35;;
68225;SDS011;55045;49.410;11.030;2023-08-17T09:37:40;9.18;;;8.00;;
68225;SDS011;55045;49.410;11.030;2023-08-17T09:40:43;11.73;;;8.60;;
68225;SDS011;55045;49.410;11.030;2023-08-17T09:43:47;10.32;;;8.43;;
68225;SDS011;55045;49.410;11.030;2023-08-17T09:46:50;8.82;;;7.93;;
68225;SDS011;55045;49.410;11.030;2023-08-17T09:49:55;10.32;;;8.35;;
68225;SDS011;55045;49.410;11.030;2023-08-17T09:52:59;9.60;;;8.23;;
68225;SDS011;55045;49.410;11.030;2023-08-17T09:56:04;9.05;;;8.25;;
68225;SDS011;55045;49.410;11.030;2023-08-17T09:59:09;9.75;;;7.72;;
68225;SDS011;55045;49.410;11.030;2023-08-17T10:02:15;9.35;;;8.23;;
68225;SDS011;55045;49.410;11.030;2023-08-17T10:05:25;9.43;;;8.45;;
68225;SDS011;55045;49.410;11.030;2023-08-17T10:08:33;8.70;;;7.90;;
68225;SDS011;55045;49.410;11.030;2023-08-17T10:11:47;9.40;;;8.27;;
68225;SDS011;55045;49.410;11.030;2023-08-17T10:14:58;10.10;;;7.97;;
68225;SDS011;55045;49.410;11.030;2023-08-17T10:18:09;8.40;;;7.57;;
68225;SDS011;55045;49.410;11.030;2023-08-17T10:21:21;9.25;;;7.70;;
68225;SDS011;55045;49.410;11.030;2023-08-17T10:24:30;9.13;;;8.23;;
68225;SDS011;55045;49.410;11.030;2023-08-17T10:27:35;7.78;;;6.88;;
68225;SDS011;55045;49.410;11.030;2023-08-17T10:30:38;8.07;;;7.15;;
68225;SDS011;55045;49.410;11.030;2023-08-17T10:33:42;9.15;;;7.43;;
68225;SDS011;55045;49.410;11.030;2023-08-17T10:36:53;8.95;;;7.63;;
68225;SDS011;55045;49.410;11.030;2023-08-17T10:40:20;8.95;;;7.95;;
68225;SDS011;55045;49.410;11.030;2023-08-17T10:43:32;8.95;;;8.05;;
68225;SDS011;55045;49.410;11.030;2023-08-17T10:46:36;9.93;;;8.07;;
68225;SDS011;55045;49.410;11.030;2023-08-17T10:49:41;12.35;;;8.20;;
68225;SDS011;55045;49.410;11.030;2023-08-17T10:52:47;8.38;;;7.50;;
68225;SDS011;55045;49.410;11.030;2023-08-17T10:55:54;9.32;;;7.72;;
68225;SDS011;55045;49.410;11.030;2023-08-17T10:59:00;9.15;;;8.07;;
68225;SDS011;55045;49.410;11.030;2023-08-17T11:02:04;8.65;;;7.85;;
68225;SDS011;55045;49.410;11.030;2023-08-17T11:05:09;8.60;;;7.80;;
68225;SDS011;55045;49.410;11.030;2023-08-17T11:08:22;8.70;;;7.95;;
68225;SDS011;55045;49.410;11.030;2023-08-17T11:11:26;8.50;;;7.68;;
68225;SDS011;55045;49.410;11.030;2023-08-17T11:14:33;8.40;;;7.60;;
68225;SDS011;55045;49.410;11.030;2023-08-17T11:17:39;8.33;;;7.50;;
68225;SDS011;55045;49.410;11.030;2023-08-17T11:20:43;7.63;;;6.78;;
68225;SDS011;55045;49.410;11.030;2023-08-17T11:23:48;8.25;;;7.45;;
68225;SDS011;55045;49.410;11.030;2023-08-17T11:26:51;8.10;;;7.20;;
68225;SDS011;55045;49.410;11.030;2023-08-17T11:29:54;7.65;;;6.95;;
68225;SDS011;55045;49.410;11.030;2023-08-17T11:33:02;9.13;;;7.40;;
68225;SDS011;55045;49.410;11.030;2023-08-17T11:36:05;8.82;;;7.32;;
68225;SDS011;55045;49.410;11.030;2023-08-17T11:39:11;8.30;;;7.50;;
68225;SDS011;55045;49.410;11.030;2023-08-17T11:42:16;8.90;;;6.80;;
68225;SDS011;55045;49.410;11.030;2023-08-17T11:45:21;8.20;;;7.35;;
68225;SDS011;55045;49.410;11.030;2023-08-17T11:48:28;8.35;;;7.47;;
68225;SDS011;55045;49.410;11.030;2023-08-17T11:51:37;7.63;;;6.93;;
68225;SDS011;55045;49.410;11.030;2023-08-17T11:54:45;9.60;;;7.35;;
68225;SDS011;55045;49.410;11.030;2023-08-17T11:57:53;7.78;;;7.07;;
68225;SDS011;55045;49.410;11.030;2023-08-17T12:00:56;10.68;;;7.97;;
68225;SDS011;55045;49.410;11.030;2023-08-17T12:04:00;7.97;;;7.05;;
68225;SDS011;55045;49.410;11.030;2023-08-17T12:07:03;8.40;;;7.47;;
68225;SDS011;55045;49.410;11.030;2023-08-17T12:10:08;8.70;;;7.38;;
68225;SDS011;55045;49.410;11.030;2023-08-17T12:13:13;7.80;;;6.72;;
68225;SDS011;55045;49.410;11.030;2023-08-17T12:16:16;8.35;;;7.55;;
68225;SDS011;55045;49.410;11.030;2023-08-17T12:19:20;8.13;;;7.43;;
68225;SDS011;55045;49.410;11.030;2023-08-17T12:22:24;8.15;;;7.35;;
68225;SDS011;55045;49.410;11.030;2023-08-17T12:25:30;7.97;;;7.25;;
68225;SDS011;55045;49.410;11.030;2023-08-17T12:28:33;8.15;;;6.80;;
68225;SDS011;55045;49.410;11.030;2023-08-17T12:31:37;6.80;;;6.20;;
68225;SDS011;55045;49.410;11.030;2023-08-17T12:34:40;11.30;;;7.97;;
68225;SDS011;55045;49.410;11.030;2023-08-17T12:37:44;8.32;;;6.80;;
68225;SDS011;55045;49.410;11.030;2023-08-17T12:40:49;7.53;;;6.82;;
68225;SDS011;55045;49.410;11.030;2023-08-17T12:43:55;8.65;;;7.63;;
68225;SDS011;55045;49.410;11.030;2023-08-17T12:47:04;11.93;;;7.03;;
68225;SDS011;55045;49.410;11.030;2023-08-17T12:50:07;7.00;;;6.38;;
68225;SDS011;55045;49.410;11.030;2023-08-17T12:56:18;8.32;;;6.20;;
68225;SDS011;55045;49.410;11.030;2023-08-17T12:59:22;7.10;;;6.40;;
68225;SDS011;55045;49.410;11.030;2023-08-17T13:02:25;7.05;;;6.45;;
68225;SDS011;55045;49.410;11.030;2023-08-17T13:05:34;7.18;;;6.28;;
68225;SDS011;55045;49.410;11.030;2023-08-17T13:08:38;7.38;;;6.68;;
68225;SDS011;55045;49.410;11.030;2023-08-17T13:11:48;7.30;;;6.13;;
68225;SDS011;55045;49.410;11.030;2023-08-17T13:14:51;7.50;;;6.20;;
68225;SDS011;55045;49.410;11.030;2023-08-17T13:17:57;7.00;;;6.40;;
68225;SDS011;55045;49.410;11.030;2023-08-17T13:21:01;6.80;;;6.10;;
68225;SDS011;55045;49.410;11.030;2023-08-17T13:24:04;6.20;;;5.60;;
68225;SDS011;55045;49.410;11.030;2023-08-17T13:27:12;8.68;;;6.22;;
68225;SDS011;55045;49.410;11.030;2023-08-17T13:30:15;8.02;;;6.57;;
68225;SDS011;55045;49.410;11.030;2023-08-17T13:33:19;7.35;;;5.97;;
68225;SDS011;55045;49.410;11.030;2023-08-17T13:36:22;7.25;;;6.55;;
68225;SDS011;55045;49.410;11.030;2023-08-17T13:39:25;8.00;;;6.18;;
68225;SDS011;55045;49.410;11.030;2023-08-17T13:42:30;6.65;;;6.05;;
68225;SDS011;55045;49.410;11.030;2023-08-17T13:45:34;7.10;;;6.40;;
68225;SDS011;55045;49.410;11.030;2023-08-17T13:48:37;7.55;;;6.85;;
68225;SDS011;55045;49.410;11.030;2023-08-17T13:51:40;7.15;;;6.45;;
68225;SDS011;55045;49.410;11.030;2023-08-17T13:54:44;8.35;;;6.10;;
68225;SDS011;55045;49.410;11.030;2023-08-17T13:57:49;7.13;;;6.53;;
68225;SDS011;55045;49.410;11.030;2023-08-17T14:00:54;7.15;;;6.45;;
68225;SDS011;55045;49.410;11.030;2023-08-17T14:04:00;7.63;;;6.80;;
68225;SDS011;55045;49.410;11.030;2023-08-17T14:07:05;7.68;;;6.80;;
68225;SDS011;55045;49.410;11.030;2023-08-17T14:10:09;6.63;;;6.03;;
68225;SDS011;55045;49.410;11.030;2023-08-17T14:13:31;8.20;;;6.35;;
68225;SDS011;55045;49.410;11.030;2023-08-17T14:16:38;7.35;;;6.63;;
68225;SDS011;55045;49.410;11.030;2023-08-17T14:19:42;6.93;;;6.22;;
68225;SDS011;55045;49.410;11.030;2023-08-17T14:22:45;6.70;;;6.10;;
68225;SDS011;55045;49.410;11.030;2023-08-17T14:25:49;9.77;;;6.22;;
68225;SDS011;55045;49.410;11.030;2023-08-17T14:28:55;6.88;;;6.22;;
68225;SDS011;55045;49.410;11.030;2023-08-17T14:31:58;6.47;;;5.88;;
68225;SDS011;55045;49.410;11.030;2023-08-17T14:35:02;6.50;;;5.57;;
68225;SDS011;55045;49.410;11.030;2023-08-17T14:38:05;7.18;;;5.43;;
68225;SDS011;55045;49.410;11.030;2023-08-17T14:41:10;6.30;;;5.68;;
68225;SDS011;55045;49.410;11.030;2023-08-17T14:44:21;7.18;;;5.20;;
68225;SDS011;55045;49.410;11.030;2023-08-17T14:47:24;6.53;;;5.75;;
68225;SDS011;55045;49.410;11.030;2023-08-17T14:50:28;6.63;;;6.03;;
68225;SDS011;55045;49.410;11.030;2023-08-17T14:53:31;6.22;;;5.63;;
68225;SDS011;55045;49.410;11.030;2023-08-17T14:56:47;7.72;;;6.28;;
68225;SDS011;55045;49.410;11.030;2023-08-17T14:59:51;6.50;;;5.90;;
68225;SDS011;55045;49.410;11.030;2023-08-17T15:02:55;6.75;;;6.10;;
68225;SDS011;55045;49.410;11.030;2023-08-17T15:05:59;8.73;;;6.32;;
68225;SDS011;55045;49.410;11.030;2023-08-17T15:09:03;8.63;;;5.97;;
68225;SDS011;55045;49.410;11.030;2023-08-17T15:12:06;8.85;;;6.00;;
68225;SDS011;55045;49.410;11.030;2023-08-17T15:15:11;8.90;;;7.07;;
68225;SDS011;55045;49.410;11.030;2023-08-17T15:18:14;7.35;;;6.38;;
68225;SDS011;55045;49.410;11.030;2023-08-17T15:21:18;7.32;;;6.13;;
68225;SDS011;55045;49.410;11.030;2023-08-17T15:24:21;9.63;;;7.25;;
68225;SDS011;55045;49.410;11.030;2023-08-17T15:27:27;17.13;;;9.85;;
68225;SDS011;55045;49.410;11.030;2023-08-17T15:34:36;11.82;;;8.65;;
68225;SDS011;55045;49.410;11.030;2023-08-17T15:37:40;8.63;;;7.32;;
68225;SDS011;55045;49.410;11.030;2023-08-17T15:40:43;7.13;;;6.15;;
68225;SDS011;55045;49.410;11.030;2023-08-17T15:43:49;7.43;;;6.30;;
68225;SDS011;55045;49.410;11.030;2023-08-17T15:46:53;8.43;;;7.53;;
68225;SDS011;55045;49.410;11.030;2023-08-17T15:50:02;8.88;;;7.75;;
68225;SDS011;55045;49.410;11.030;2023-08-17T15:53:05;10.05;;;8.02;;
68225;SDS011;55045;49.410;11.030;2023-08-17T15:56:10;7.93;;;7.13;;
68225;SDS011;55045;49.410;11.030;2023-08-17T15:59:13;8.27;;;5.88;;
68225;SDS011;55045;49.410;11.030;2023-08-17T16:02:16;6.82;;;5.50;;
68225;SDS011;55045;49.410;11.030;2023-08-17T16:05:22;6.30;;;5.53;;
68225;SDS011;55045;49.410;11.030;2023-08-17T16:08:25;12.68;;;5.50;;
68225;SDS011;55045;49.410;11.030;2023-08-17T16:11:49;23.70;;;11.25;;
68225;SDS011;55045;49.410;11.030;2023-08-17T16:14:52;36.55;;;12.23;;
68225;SDS011;55045;49.410;11.030;2023-08-17T16:17:55;15.45;;;8.02;;
68225;SDS011;55045;49.410;11.030;2023-08-17T16:21:03;16.45;;;9.43;;
68225;SDS011;55045;49.410;11.030;2023-08-17T16:24:06;32.60;;;9.50;;
68225;SDS011;55045;49.410;11.030;2023-08-17T16:27:10;34.55;;;11.48;;
68225;SDS011;55045;49.410;11.030;2023-08-17T16:30:13;19.88;;;10.15;;
68225;SDS011;55045;49.410;11.030;2023-08-17T16:33:16;19.60;;;11.93;;
68225;SDS011;55045;49.410;11.030;2023-08-17T16:36:24;36.15;;;9.63;;
68225;SDS011;55045;49.410;11.030;2023-08-17T16:39:28;25.02;;;9.77;;
68225;SDS011;55045;49.410;11.030;2023-08-17T16:42:31;26.38;;;12.57;;
68225;SDS011;55045;49.410;11.030;2023-08-17T16:45:34;21.75;;;12.13;;
68225;SDS011;55045;49.410;11.030;2023-08-17T16:48:38;16.67;;;11.70;;
68225;SDS011;55045;49.410;11.030;2023-08-17T16:51:42;13.57;;;9.80;;
68225;SDS011;55045;49.410;11.030;2023-08-17T16:54:46;14.27;;;10.68;;
68225;SDS011;55045;49.410;11.030;2023-08-17T16:57:50;17.58;;;13.57;;
68225;SDS011;55045;49.410;11.030;2023-08-17T17:00:58;11.13;;;9.40;;
68225;SDS011;55045;49.410;11.030;2023-08-17T17:04:06;11.27;;;9.23;;
68225;SDS011;55045;49.410;11.030;2023-08-17T17:07:11;12.90;;;8.02;;
68225;SDS011;55045;49.410;11.030;2023-08-17T17:10:14;10.98;;;8.75;;
68225;SDS011;55045;49.410;11.030;2023-08-17T17:13:20;8.30;;;6.65;;
68225;SDS011;55045;49.410;11.030;2023-08-17T17:16:23;16.55;;;12.65;;
68225;SDS011;55045;49.410;11.030;2023-08-17T17:19:27;14.23;;;10.38;;
68225;SDS011;55045;49.410;11.030;2023-08-17T17:22:31;18.10;;;13.63;;
68225;SDS011;55045;49.410;11.030;2023-08-17T17:25:35;21.38;;;14.65;;
68225;SDS011;55045;49.410;11.030;2023-08-17T17:28:38;19.55;;;14.45;;
68225;SDS011;55045;49.410;11.030;2023-08-17T17:31:41;12.65;;;11.35;;
68225;SDS011;55045;49.410;11.030;2023-08-17T17:34:45;16.70;;;12.95;;
68225;SDS011;55045;49.410;11.030;2023-08-17T17:37:49;18.60;;;11.75;;
68225;SDS011;55045;49.410;11.030;2023-08-17T17:40:52;11.85;;;10.32;;
68225;SDS011;55045;49.410;11.030;2023-08-17T17:43:56;12.30;;;9.77;;
68225;SDS011;55045;49.410;11.030;2023-08-17T17:46:59;12.05;;;9.27;;
68225;SDS011;55045;49.410;11.030;2023-08-17T17:50:04;9.63;;;8.35;;
68225;SDS011;55045;49.410;11.030;2023-08-17T17:53:09;14.32;;;9.10;;
68225;SDS011;55045;49.410;11.030;2023-08-17T17:56:13;10.82;;;8.00;;
68225;SDS011;55045;49.410;11.030;2023-08-17T17:59:16;11.20;;;8.43;;
68225;SDS011;55045;49.410;11.030;2023-08-17T18:02:24;11.13;;;8.50;;
68225;SDS011;55045;49.410;11.030;2023-08-17T18:05:29;15.35;;;10.18;;
68225;SDS011;55045;49.410;11.030;2023-08-17T18:08:33;13.40;;;10.98;;
68225;SDS011;55045;49.410;11.030;2023-08-17T18:11:38;15.50;;;11.68;;
68225;SDS011;55045;49.410;11.030;2023-08-17T18:14:43;17.52;;;11.45;;
68225;SDS011;55045;49.410;11.030;2023-08-17T18:17:46;12.45;;;9.65;;
68225;SDS011;55045;49.410;11.030;2023-08-17T18:20:51;16.10;;;11.13;;
68225;SDS011;55045;49.410;11.030;2023-08-17T18:23:56;18.90;;;12.95;;